Time;durP1;ratioP1;P1;durP2;ratioP2;P2;SDS_P1;SDS_P2;PMS_P1;PMS_P2;Temp;Humidity;BMP_temperature;BMP_pressure;BME280_temperature;BME280_humidity;BME280_pressure;Samples;Min_cycle;Max_cycle;Signal;HPM_P1;HPM_P2
2022/08/31 00:04:41;;;;;;;;;11.00;8.00;;;;;22.53;46.21;101369.66;5037088;28;45213;-66
2022/08/31 00:07:07;;;;;;;;;4.00;2.00;;;;;22.53;45.96;101368.81;5037385;28;45385;-66
2022/08/31 00:09:33;;;;;;;;;7.00;4.33;;;;;22.45;46.39;101357.16;5049926;28;45517;-66
2022/08/31 00:11:59;;;;;;;;;8.00;6.00;;;;;22.48;46.21;101372.16;5017447;28;46535;-66
2022/08/31 00:14:25;;;;;;;;;5.67;5.67;;;;;22.46;45.95;101364.25;5017327;28;45289;-66
2022/08/31 00:16:50;;;;;;;;;9.33;7.00;;;;;22.44;45.92;101343.81;5016061;28;45236;-65
2022/08/31 00:19:15;;;;;;;;;7.00;7.00;;;;;22.27;46.39;101342.53;5018516;28;45326;-68
2022/08/31 00:21:41;;;;;;;;;4.67;4.67;;;;;22.13;46.50;101337.09;5036797;28;46034;-67
2022/08/31 00:24:07;;;;;;;;;6.00;6.00;;;;;22.27;46.33;101366.91;5036903;28;45316;-67
2022/08/31 00:26:33;;;;;;;;;8.00;7.00;;;;;22.20;46.63;101341.66;5036682;28;45304;-66
2022/08/31 00:28:58;;;;;;;;;6.67;5.33;;;;;22.17;47.01;101360.00;5037775;28;45539;-66
2022/08/31 00:31:24;;;;;;;;;8.67;6.00;;;;;22.16;46.84;101369.16;5035554;28;47500;-66
2022/08/31 00:33:51;;;;;;;;;7.33;7.33;;;;;22.19;46.61;101350.84;5036939;28;45390;-64
2022/08/31 00:36:19;;;;;;;;;8.67;6.67;;;;;22.13;47.00;101369.59;5032374;28;45486;-66
2022/08/31 00:38:44;;;;;;;;;7.33;5.67;;;;;22.15;46.81;101362.09;5017393;28;45329;-67
2022/08/31 00:41:12;;;;;;;;;7.00;7.00;;;;;22.09;46.65;101354.78;5017427;28;46791;-66
2022/08/31 00:43:43;;;;;;;;;8.00;7.00;;;;;22.11;46.84;101360.84;5017024;28;45448;-66
2022/08/31 00:46:10;;;;;;;;;7.67;6.00;;;;;21.92;46.69;101331.81;5017071;28;45352;-66
2022/08/31 00:48:42;;;;;;;;;9.00;7.00;;;;;21.73;46.88;101317.16;5016958;28;45435;-65
2022/08/31 00:51:07;;;;;;;;;8.33;6.00;;;;;21.49;47.03;101274.41;5016452;28;46441;-64
2022/08/31 00:53:34;;;;;;;;;5.00;4.00;;;;;21.98;46.60;101357.22;5016602;28;45265;-65
2022/08/31 00:55:59;;;;;;;;;10.33;7.00;;;;;22.00;46.97;101357.84;5018058;28;45337;-65
2022/08/31 00:58:25;;;;;;;;;4.00;4.00;;;;;21.79;47.12;101346.13;5036890;28;45392;-66
2022/08/31 01:00:50;;;;;;;;;6.00;5.00;;;;;21.83;46.89;101349.28;5019864;28;46768;-66
2022/08/31 01:03:16;;;;;;;;;6.00;6.00;;;;;21.75;47.19;101352.16;5016752;28;45340;-66
2022/08/31 01:05:42;;;;;;;;;7.00;7.00;;;;;21.69;47.13;101364.63;5016981;28;45453;-66
2022/08/31 01:08:08;;;;;;;;;6.33;5.33;;;;;21.25;47.58;101275.78;5031599;28;45273;-65
2022/08/31 01:10:42;;;;;;;;;6.00;6.00;;;;;21.80;47.25;101369.44;5036818;28;46453;-65
2022/08/31 01:13:11;;;;;;;;;8.00;7.00;;;;;21.27;46.97;101279.13;5036763;28;45344;-66
2022/08/31 01:15:36;;;;;;;;;5.33;4.00;;;;;21.63;47.31;101340.25;5036659;28;45217;-67
2022/08/31 01:18:05;;;;;;;;;5.00;5.00;;;;;21.68;47.24;101364.84;5039996;28;45266;-67
2022/08/31 01:21:02;;;;;;;;;5.67;5.67;;;;;21.64;47.50;101359.00;5036387;28;46627;-66
2022/08/31 01:23:33;;;;;;;;;11.67;10.67;;;;;21.54;47.95;101370.16;5036245;28;45437;-66
2022/08/31 01:26:02;;;;;;;;;5.33;5.33;;;;;21.65;47.32;101357.13;5035546;28;45391;-67
2022/08/31 01:28:27;;;;;;;;;6.00;6.00;;;;;21.48;48.01;101362.03;5036518;28;45465;-66
2022/08/31 01:31:22;;;;;;;;;4.00;4.00;;;;;21.49;47.97;101361.84;5036274;28;48884;-64
2022/08/31 01:33:47;;;;;;;;;5.00;4.00;;;;;21.52;47.58;101372.25;5040663;28;45500;-68
2022/08/31 01:36:14;;;;;;;;;5.33;5.33;;;;;21.40;47.93;101351.34;5039386;28;46086;-65
2022/08/31 01:38:39;;;;;;;;;6.33;5.67;;;;;21.52;47.85;101366.84;5040190;28;45308;-65
2022/08/31 01:41:05;;;;;;;;;6.67;6.00;;;;;21.55;48.03;101377.25;5037886;28;48238;-65
2022/08/31 01:43:32;;;;;;;;;4.33;4.33;;;;;21.50;48.13;101373.47;5040126;28;45424;-66
2022/08/31 01:45:59;;;;;;;;;5.33;4.33;;;;;21.51;47.78;101367.03;5038330;28;45283;-68
2022/08/31 01:48:24;;;;;;;;;6.33;6.33;;;;;21.48;48.13;101370.97;5019990;28;45529;-65
2022/08/31 01:50:50;;;;;;;;;5.00;5.00;;;;;21.00;48.18;101294.31;5025840;28;45225;-64
2022/08/31 01:53:15;;;;;;;;;8.00;7.00;;;;;21.51;47.92;101370.56;5039625;28;45469;-65
2022/08/31 01:55:41;;;;;;;;;7.00;6.00;;;;;21.41;47.77;101370.09;5038285;28;45553;-65
2022/08/31 01:58:07;;;;;;;;;6.67;6.00;;;;;21.47;47.79;101371.19;5054670;28;45409;-65
2022/08/31 02:00:33;;;;;;;;;6.00;6.00;;;;;21.51;48.04;101373.28;5038216;28;46905;-65
2022/08/31 02:03:00;;;;;;;;;5.00;5.00;;;;;21.52;48.06;101376.81;5039323;28;45378;-65
2022/08/31 02:05:29;;;;;;;;;6.00;6.00;;;;;21.55;47.80;101368.31;5039350;28;45330;-66
2022/08/31 02:07:55;;;;;;;;;13.00;8.33;;;;;21.40;48.03;101359.47;5023182;28;45441;-65
2022/08/31 02:10:22;;;;;;;;;4.67;4.67;;;;;21.50;48.05;101373.47;5018996;28;46507;-66
2022/08/31 02:12:47;;;;;;;;;7.00;5.33;;;;;21.47;48.32;101369.31;5018837;28;45276;-64
2022/08/31 02:15:13;;;;;;;;;5.67;5.67;;;;;20.91;48.50;101304.47;5019142;28;45392;-66
2022/08/31 02:17:38;;;;;;;;;5.33;3.00;;;;;21.29;48.58;101377.13;5030772;28;45306;-66
2022/08/31 02:20:08;;;;;;;;;13.00;12.00;;;;;21.30;48.59;101367.13;5038791;28;45470;-66
2022/08/31 02:22:34;;;;;;;;;6.00;6.00;;;;;21.30;48.50;101378.78;5039038;28;45222;-66
2022/08/31 02:24:59;;;;;;;;;5.00;5.00;;;;;21.07;49.03;101353.84;5037643;28;45257;-65
2022/08/31 02:27:25;;;;;;;;;6.67;5.33;;;;;21.23;48.97;101377.88;5037420;28;45363;-65
2022/08/31 02:29:50;;;;;;;;;6.67;6.00;;;;;20.69;48.91;101297.47;5038661;28;46806;-65
2022/08/31 02:32:15;;;;;;;;;10.00;8.00;;;;;21.11;48.95;101363.25;5037621;28;46127;-67
2022/08/31 02:34:41;;;;;;;;;7.00;7.00;;;;;21.08;48.81;101375.28;5037486;28;45451;-66
2022/08/31 02:37:06;;;;;;;;;6.33;4.33;;;;;21.01;49.24;101379.78;5038098;28;45204;-65
2022/08/31 02:39:32;;;;;;;;;7.00;6.00;;;;;21.03;49.16;101383.16;5038613;28;45622;-65
2022/08/31 02:41:58;;;;;;;;;5.00;5.00;;;;;20.85;49.38;101374.72;5038589;28;45294;-65
2022/08/31 02:44:23;;;;;;;;;6.00;6.00;;;;;20.84;49.59;101375.75;5038444;28;45390;-65
2022/08/31 02:46:49;;;;;;;;;7.00;6.00;;;;;20.98;49.44;101395.56;5018000;28;45469;-65
2022/08/31 02:49:14;;;;;;;;;8.33;6.00;;;;;20.66;49.20;101332.97;5016745;28;47407;-64
2022/08/31 02:51:41;;;;;;;;;7.00;6.00;;;;;21.03;49.08;101387.75;5017142;28;45538;-66
2022/08/31 02:54:07;;;;;;;;;8.00;6.67;;;;;20.59;48.84;101316.69;5018400;28;45396;-65
2022/08/31 02:56:32;;;;;;;;;6.67;6.00;;;;;20.91;49.17;101401.78;5019335;28;45392;-65
2022/08/31 02:58:58;;;;;;;;;4.67;4.67;;;;;20.59;49.13;101332.91;5018467;28;45620;-65
2022/08/31 03:01:23;;;;;;;;;7.00;7.00;;;;;20.57;49.29;101328.72;5018488;28;45251;-65
2022/08/31 03:03:49;;;;;;;;;10.00;7.00;;;;;20.94;49.19;101401.38;5018864;28;45459;-66
2022/08/31 03:06:15;;;;;;;;;5.67;5.67;;;;;20.96;49.18;101399.31;5032511;28;45549;-66
2022/08/31 03:08:41;;;;;;;;;7.67;7.67;;;;;20.90;49.41;101394.69;5038374;28;45756;-64
2022/08/31 03:11:07;;;;;;;;;10.00;6.33;;;;;20.90;49.77;101400.09;5038376;28;45300;-66
2022/08/31 03:13:32;;;;;;;;;6.33;6.00;;;;;20.93;49.32;101405.13;5053978;28;45372;-65
2022/08/31 03:15:58;;;;;;;;;7.00;7.00;;;;;20.56;49.50;101349.50;5038104;28;45602;-66
2022/08/31 03:18:23;;;;;;;;;6.67;6.67;;;;;20.14;49.73;101307.13;5053249;28;52927;-66
2022/08/31 03:20:48;;;;;;;;;2.67;2.67;;;;;20.58;49.69;101387.13;5038055;28;45577;-66
2022/08/31 03:23:14;;;;;;;;;6.33;6.33;;;;;20.66;49.75;101400.53;5038360;28;45796;-65
2022/08/31 03:25:40;;;;;;;;;7.00;7.00;;;;;20.68;49.69;101405.75;5036690;28;45585;-65
2022/08/31 03:28:05;;;;;;;;;6.67;6.00;;;;;20.69;49.64;101396.59;5037939;28;45821;-65
2022/08/31 03:30:31;;;;;;;;;5.67;5.67;;;;;20.73;49.30;101393.31;5037888;28;45487;-65
2022/08/31 03:32:56;;;;;;;;;7.00;6.00;;;;;20.74;49.37;101411.19;5038125;28;45239;-66
2022/08/31 03:35:22;;;;;;;;;5.33;5.33;;;;;20.61;49.45;101394.84;5030488;28;45586;-65
2022/08/31 03:37:50;;;;;;;;;11.00;7.67;;;;;20.62;49.50;101407.31;5017865;28;45823;-65
2022/08/31 03:40:15;;;;;;;;;5.00;5.00;;;;;20.26;49.82;101348.81;5016551;28;46156;-64
2022/08/31 03:42:41;;;;;;;;;9.33;7.00;;;;;20.61;49.66;101420.00;5017959;28;45327;-66
2022/08/31 03:45:07;;;;;;;;;8.00;7.00;;;;;20.56;49.61;101408.09;5022263;28;45464;-65
2022/08/31 03:47:33;;;;;;;;;9.33;6.33;;;;;20.55;49.72;101415.38;5036639;28;47318;-65
2022/08/31 03:49:58;;;;;;;;;6.00;5.00;;;;;20.53;49.88;101416.59;5037699;28;45423;-65
2022/08/31 03:52:24;;;;;;;;;4.00;4.00;;;;;20.46;50.05;101410.31;5037977;28;45293;-65
2022/08/31 03:54:49;;;;;;;;;8.67;5.67;;;;;20.41;49.88;101405.47;5037241;28;45367;-66
2022/08/31 03:57:15;;;;;;;;;5.00;5.00;;;;;20.28;49.73;101389.94;5037587;28;45716;-65
2022/08/31 03:59:40;;;;;;;;;10.00;6.33;;;;;20.28;49.89;101395.34;5036083;28;45291;-67
2022/08/31 04:02:05;;;;;;;;;7.00;7.00;;;;;20.38;50.18;101416.63;5037533;28;45326;-67
2022/08/31 04:04:31;;;;;;;;;6.33;5.33;;;;;20.35;50.19;101415.16;5052960;28;45458;-66
2022/08/31 04:06:56;;;;;;;;;6.33;6.33;;;;;20.33;50.16;101414.50;5018570;28;50194;-66
2022/08/31 04:09:22;;;;;;;;;3.67;3.67;;;;;20.36;50.21;101424.91;5017195;28;46654;-65
2022/08/31 04:11:47;;;;;;;;;6.33;6.33;;;;;20.34;50.20;101415.34;5017472;28;45296;-64
2022/08/31 04:14:14;;;;;;;;;8.33;7.33;;;;;19.92;50.43;101345.94;5017402;28;45342;-66
2022/08/31 04:16:40;;;;;;;;;7.00;6.67;;;;;20.25;50.29;101406.53;5016941;28;45432;-66
2022/08/31 04:19:06;;;;;;;;;4.00;4.00;;;;;20.31;50.33;101421.97;5016987;28;45343;-65
2022/08/31 04:21:31;;;;;;;;;6.67;6.67;;;;;20.28;50.23;101414.25;5017202;28;45450;-66
2022/08/31 04:23:58;;;;;;;;;6.00;5.00;;;;;20.17;50.32;101417.44;5017526;28;45312;-65
2022/08/31 04:26:27;;;;;;;;;6.67;6.67;;;;;20.07;50.48;101381.00;5028115;28;46705;-66
2022/08/31 04:28:52;;;;;;;;;8.67;6.00;;;;;20.22;50.63;101412.31;5036817;28;45316;-65
2022/08/31 04:31:19;;;;;;;;;9.00;7.00;;;;;20.21;50.39;101410.63;5037007;28;45193;-66
2022/08/31 04:33:45;;;;;;;;;7.00;7.00;;;;;20.20;50.88;101424.31;5036687;28;45558;-65
2022/08/31 04:36:17;;;;;;;;;7.00;7.00;;;;;19.86;50.61;101374.53;5025468;28;46262;-66
2022/08/31 04:38:48;;;;;;;;;8.00;7.00;;;;;19.92;50.75;101383.72;5017124;28;45206;-66
2022/08/31 04:41:16;;;;;;;;;9.33;7.33;;;;;20.02;51.36;101419.31;5015601;28;45507;-65
2022/08/31 04:43:45;;;;;;;;;9.67;6.33;;;;;19.84;51.14;101398.16;5017255;28;45218;-64
2022/08/31 04:46:11;;;;;;;;;5.67;5.67;;;;;19.54;51.16;101362.28;5027082;28;48247;-65
2022/08/31 04:48:38;;;;;;;;;8.00;7.33;;;;;19.88;51.52;101420.22;5036514;28;45462;-65
2022/08/31 04:51:07;;;;;;;;;7.00;6.33;;;;;19.90;51.50;101418.16;5036558;28;46041;-67
2022/08/31 04:53:33;;;;;;;;;6.00;6.00;;;;;19.91;51.50;101431.47;5035793;28;45264;-67
2022/08/31 04:56:13;;;;;;;;;4.67;4.67;;;;;19.70;51.45;101380.13;5035952;28;45649;-67
2022/08/31 04:58:54;;;;;;;;;5.67;5.00;;;;;19.92;51.24;101419.63;5036774;28;45283;-66
2022/08/31 05:01:23;;;;;;;;;7.67;7.67;;;;;19.52;51.45;101345.44;5026071;28;45222;-65
2022/08/31 05:03:51;;;;;;;;;8.67;8.33;;;;;20.00;51.21;101418.69;5015611;28;45301;-66
2022/08/31 05:06:19;;;;;;;;;6.33;6.33;;;;;19.92;50.99;101408.00;5016451;28;46456;-65
2022/08/31 05:08:44;;;;;;;;;7.33;7.00;;;;;19.96;51.14;101426.31;5015651;28;45234;-66
2022/08/31 05:11:11;;;;;;;;;9.00;7.00;;;;;19.91;51.22;101409.03;5016527;28;45850;-65
2022/08/31 05:13:36;;;;;;;;;8.33;7.00;;;;;19.93;51.32;101418.59;5017055;28;45347;-66
2022/08/31 05:16:04;;;;;;;;;8.67;7.00;;;;;19.97;51.24;101429.84;5023497;28;47439;-65
2022/08/31 05:18:30;;;;;;;;;8.00;7.33;;;;;19.93;51.32;101413.22;5036263;28;45308;-66
2022/08/31 05:20:55;;;;;;;;;9.67;8.67;;;;;19.95;51.04;101423.81;5036345;28;45295;-66
2022/08/31 05:23:21;;;;;;;;;12.00;9.67;;;;;19.93;50.95;101429.41;5036764;28;45284;-66
2022/08/31 05:25:46;;;;;;;;;3.00;3.00;;;;;19.38;51.34;101332.78;5027957;28;47026;-65
2022/08/31 05:28:11;;;;;;;;;6.67;6.67;;;;;19.83;51.35;101406.47;5014667;28;45706;-67
2022/08/31 05:30:41;;;;;;;;;5.33;4.00;;;;;20.00;51.33;101435.72;5016730;28;45486;-65
2022/08/31 05:33:06;;;;;;;;;7.33;7.33;;;;;20.02;51.01;101427.41;5016690;28;45420;-67
2022/08/31 05:35:33;;;;;;;;;7.00;7.00;;;;;19.69;50.80;101368.50;5019216;28;51631;-65
2022/08/31 05:37:58;;;;;;;;;8.67;7.00;;;;;20.05;50.94;101436.00;5020190;28;45464;-68
2022/08/31 05:40:24;;;;;;;;;10.33;9.00;;;;;20.10;51.08;101429.19;5019940;28;46212;-66
2022/08/31 05:42:49;;;;;;;;;8.00;8.00;;;;;20.09;50.88;101438.31;5016800;28;45353;-66
2022/08/31 05:45:17;;;;;;;;;6.00;6.00;;;;;20.07;50.82;101435.81;5025755;28;46363;-66
2022/08/31 05:47:42;;;;;;;;;8.00;8.00;;;;;20.11;51.00;101428.16;5036224;28;45510;-66
2022/08/31 05:50:08;;;;;;;;;6.33;6.33;;;;;20.11;50.64;101410.09;5036208;28;47179;-65
2022/08/31 05:52:33;;;;;;;;;6.33;6.33;;;;;20.08;50.44;101405.09;5036715;28;45233;-67
2022/08/31 05:54:59;;;;;;;;;6.67;5.67;;;;;20.24;50.76;101433.72;5036128;28;45587;-66
2022/08/31 05:57:24;;;;;;;;;7.00;7.00;;;;;20.30;50.45;101435.66;5024906;28;45361;-66
2022/08/31 05:59:50;;;;;;;;;6.00;5.67;;;;;20.39;50.32;101430.97;5016407;28;45466;-65
2022/08/31 06:02:15;;;;;;;;;10.33;9.33;;;;;20.39;50.25;101428.25;5016222;28;45385;-67
2022/08/31 06:04:40;;;;;;;;;9.67;7.00;;;;;20.40;50.12;101435.34;5016066;28;45543;-66
2022/08/31 06:07:06;;;;;;;;;6.33;6.00;;;;;20.28;50.31;101427.75;5017281;28;53309;-65
2022/08/31 06:09:31;;;;;;;;;8.00;7.67;;;;;20.41;50.08;101435.16;5016033;28;45294;-65
2022/08/31 06:11:57;;;;;;;;;5.00;5.00;;;;;20.37;50.24;101431.16;5034699;28;45476;-65
2022/08/31 06:14:22;;;;;;;;;9.33;7.00;;;;;20.40;50.15;101435.34;5051152;28;47360;-66
2022/08/31 06:16:47;;;;;;;;;7.00;7.00;;;;;20.33;50.08;101414.50;5035910;28;45312;-66
2022/08/31 06:19:13;;;;;;;;;8.00;8.00;;;;;20.34;50.18;101421.56;5035947;28;45398;-67
2022/08/31 06:21:41;;;;;;;;;5.33;4.67;;;;;20.54;50.09;101442.59;5039576;28;45412;-65
2022/08/31 06:24:09;;;;;;;;;8.00;6.00;;;;;20.63;50.12;101438.75;5038721;28;45922;-67
2022/08/31 06:26:35;;;;;;;;;6.67;6.67;;;;;20.58;49.32;101385.28;5033554;28;45399;-67
2022/08/31 06:29:03;;;;;;;;;8.67;7.00;;;;;21.50;48.21;101433.00;5037724;28;45637;-67
2022/08/31 06:31:45;;;;;;;;;12.67;7.67;;;;;22.10;46.66;101424.16;5039343;28;45230;-67
2022/08/31 06:34:11;;;;;;;;;10.33;7.00;;;;;22.78;45.19;101429.50;5038746;28;46424;-66
2022/08/31 06:36:37;;;;;;;;;8.00;8.00;;;;;23.29;44.34;101440.59;5038950;28;45424;-66
2022/08/31 06:39:03;;;;;;;;;7.33;7.33;;;;;23.75;42.56;101434.25;5037874;28;45622;-69
2022/08/31 06:41:32;;;;;;;;;12.67;11.33;;;;;23.73;41.25;101360.31;5038674;28;45597;-67
2022/08/31 06:44:00;;;;;;;;;7.00;7.00;;;;;24.43;40.95;101431.88;5032390;28;47533;-68
2022/08/31 06:46:26;;;;;;;;;9.00;8.00;;;;;24.75;40.52;101440.00;5024314;28;45203;-68
2022/08/31 06:48:55;;;;;;;;;7.67;6.33;;;;;25.00;39.25;101421.81;5038695;28;45517;-72
2022/08/31 06:51:22;;;;;;;;;9.67;7.67;;;;;25.07;39.28;101441.66;5037677;28;45617;-67
2022/08/31 06:53:48;;;;;;;;;9.00;7.67;;;;;25.30;38.56;101410.25;5038520;28;46458;-66
2022/08/31 06:56:19;;;;;;;;;9.00;8.00;;;;;25.68;38.09;101438.16;5054020;28;45269;-66
2022/08/31 06:58:45;;;;;;;;;5.67;4.67;;;;;25.33;37.72;101361.63;5038978;28;45482;-68
2022/08/31 07:01:13;;;;;;;;;9.67;9.67;;;;;26.24;37.15;101447.94;5037284;28;45483;-69
2022/08/31 07:03:42;;;;;;;;;8.00;8.00;;;;;26.39;36.30;101444.81;5034237;28;47076;-67
2022/08/31 07:06:17;;;;;;;;;9.00;9.00;;;;;26.82;35.47;101447.28;5052827;28;45478;-65
2022/08/31 07:08:44;;;;;;;;;11.00;11.00;;;;;27.35;34.54;101437.41;5038523;28;45416;-66
2022/08/31 07:11:15;;;;;;;;;6.00;6.00;;;;;27.71;33.89;101433.59;5038508;28;45565;-65
2022/08/31 07:13:41;;;;;;;;;9.33;9.00;;;;;27.88;33.91;101393.50;5038003;28;46668;-65
2022/08/31 07:16:11;;;;;;;;;8.67;7.67;;;;;28.56;32.80;101433.63;5032577;28;45499;-64
2022/08/31 07:18:37;;;;;;;;;10.33;8.33;;;;;29.22;32.09;101445.69;5018230;28;45393;-65
2022/08/31 07:21:09;;;;;;;;;7.33;7.33;;;;;29.63;31.53;101429.84;5028411;28;45427;-65
2022/08/31 07:23:35;;;;;;;;;10.00;10.00;;;;;30.19;30.37;101433.31;5035814;28;45907;-66
2022/08/31 07:26:07;;;;;;;;;9.00;9.00;;;;;30.55;29.94;101429.00;5037549;28;45485;-65
2022/08/31 07:28:33;;;;;;;;;8.00;6.33;;;;;30.78;29.06;101419.63;5037923;28;45479;-65
2022/08/31 07:31:02;;;;;;;;;11.67;8.00;;;;;31.46;29.05;101428.94;5025020;28;45510;-67
2022/08/31 07:33:37;;;;;;;;;14.00;11.00;;;;;31.59;27.45;101409.19;5025212;28;46349;-66
2022/08/31 07:36:09;;;;;;;;;7.00;7.00;;;;;31.58;28.09;101406.69;5017807;28;45202;-65
2022/08/31 07:44:05;;;;;;;;;9.67;8.67;;;;;32.00;27.54;101426.69;5018084;28;45348;-66
2022/08/31 07:46:31;;;;;;;;;6.00;6.00;;;;;32.18;27.26;101408.84;5032720;28;45292;-69
2022/08/31 07:48:58;;;;;;;;;11.33;9.67;;;;;32.46;26.45;101431.53;5034413;28;45403;-64
2022/08/31 07:51:24;;;;;;;;;8.00;8.00;;;;;32.61;26.10;101404.81;5032504;28;45653;-64
2022/08/31 07:53:51;;;;;;;;;11.00;11.00;;;;;32.71;25.81;101438.97;5021678;28;46346;-66
2022/08/31 07:56:18;;;;;;;;;9.67;9.00;;;;;32.03;26.30;101354.63;5024448;28;45641;-66
2022/08/31 07:58:46;;;;;;;;;10.00;9.33;;;;;32.84;26.63;101442.03;5020509;28;45588;-64
2022/08/31 08:01:13;;;;;;;;;8.00;7.67;;;;;32.87;25.85;101424.94;5019279;28;45659;-70
2022/08/31 08:03:42;;;;;;;;;11.67;11.67;;;;;33.36;25.68;101438.13;5029276;28;45987;-64
2022/08/31 08:06:13;;;;;;;;;7.00;7.00;;;;;33.59;24.89;101442.19;5019034;28;45352;-64
2022/08/31 08:08:41;;;;;;;;;11.33;11.33;;;;;33.74;24.84;101439.38;5042794;28;45524;-67
2022/08/31 08:11:07;;;;;;;;;10.33;10.33;;;;;33.82;25.11;101426.91;5034500;28;45490;-64
2022/08/31 08:13:34;;;;;;;;;10.33;10.33;;;;;33.99;24.52;101424.66;5033607;28;45788;-65
2022/08/31 08:15:59;;;;;;;;;9.67;9.67;;;;;34.10;24.49;101406.13;5017236;28;46020;-66
2022/08/31 08:18:25;;;;;;;;;8.00;8.00;;;;;33.71;24.74;101415.13;5017526;28;45557;-65
2022/08/31 08:20:51;;;;;;;;;11.33;10.00;;;;;33.54;25.26;101418.22;5017725;28;45423;-68
2022/08/31 08:23:18;;;;;;;;;9.00;9.00;;;;;33.46;25.02;101415.22;5016003;28;47573;-73
2022/08/31 08:25:45;;;;;;;;;10.00;10.00;;;;;33.25;25.22;101417.19;5017314;28;45487;-66
2022/08/31 08:28:16;;;;;;;;;11.33;10.00;;;;;33.10;25.31;101414.44;5017267;28;45234;-66
2022/08/31 08:30:46;;;;;;;;;11.67;11.67;;;;;33.10;25.66;101414.44;5017893;28;45618;-67
2022/08/31 08:33:12;;;;;;;;;9.33;9.33;;;;;32.11;26.22;101335.94;5020761;28;46243;-65
2022/08/31 08:35:39;;;;;;;;;10.00;10.00;;;;;32.60;26.07;101366.53;5017730;28;46512;-70
2022/08/31 08:38:05;;;;;;;;;12.67;10.33;;;;;32.95;26.10;101396.84;5026054;28;45236;-67
2022/08/31 08:40:41;;;;;;;;;15.00;12.33;;;;;32.84;25.85;101381.44;5020297;28;45501;-67
2022/08/31 08:43:15;;;;;;;;;9.00;9.00;;;;;32.87;26.02;101402.09;5029733;28;47672;-67
2022/08/31 08:45:42;;;;;;;;;11.00;10.00;;;;;32.78;26.07;101406.47;5023232;28;45515;-73
2022/08/31 08:48:12;;;;;;;;;15.00;13.00;;;;;32.69;26.06;101403.44;5021727;28;45558;-79
2022/08/31 08:50:40;;;;;;;;;12.67;12.33;;;;;32.81;26.45;101406.75;5027051;28;45640;-69
2022/08/31 08:53:11;;;;;;;;;10.33;10.33;;;;;32.46;26.54;101376.47;5017796;28;47606;-71
2022/08/31 08:55:40;;;;;;;;;12.33;11.67;;;;;32.73;26.46;101401.78;5032744;28;45425;-72
2022/08/31 08:58:09;;;;;;;;;9.33;9.33;;;;;32.75;26.81;101396.81;5031973;28;45263;-72
2022/08/31 09:00:37;;;;;;;;;11.33;10.67;;;;;32.89;26.36;101406.22;5019474;28;45518;-67
2022/08/31 09:03:19;;;;;;;;;9.33;9.00;;;;;33.10;25.98;101411.69;5032606;28;46660;-70
2022/08/31 09:06:06;;;;;;;;;9.00;9.00;;;;;33.15;25.99;101406.16;5036477;28;45473;-66
2022/08/31 09:08:53;;;;;;;;;10.67;10.67;;;;;33.23;25.62;101405.59;5035206;28;45505;-66
2022/08/31 09:11:28;;;;;;;;;11.00;10.00;;;;;33.22;25.46;101395.66;5037530;28;45416;-66
2022/08/31 09:13:54;;;;;;;;;12.00;11.00;;;;;33.42;25.79;101403.91;5051984;28;48130;-66
2022/08/31 09:16:39;;;;;;;;;8.33;8.33;;;;;33.46;25.81;101398.69;5036678;28;45366;-67
2022/08/31 09:19:09;;;;;;;;;9.00;9.00;;;;;33.60;25.29;101396.13;5036677;28;45411;-65
2022/08/31 09:21:41;;;;;;;;;11.00;10.00;;;;;33.86;25.52;101393.00;5036660;28;45601;-68
2022/08/31 09:24:10;;;;;;;;;11.00;10.00;;;;;34.42;24.92;101391.81;5036506;28;48209;-66
2022/08/31 09:27:19;;;;;;;;;11.00;10.00;;;;;35.15;24.20;101388.97;5034892;28;45344;-66
2022/08/31 09:30:00;;;;;;;;;10.00;10.00;;;;;36.03;23.21;101361.88;5039932;28;45263;-65
2022/08/31 09:32:34;;;;;;;;;11.33;10.33;;;;;36.77;22.22;101360.13;5036718;28;45482;-65
2022/08/31 09:35:01;;;;;;;;;10.67;9.67;;;;;37.39;21.59;101361.47;5035982;28;45671;-66
2022/08/31 09:37:47;;;;;;;;;8.00;7.00;;;;;37.78;21.18;101328.75;5035330;28;45518;-66
2022/08/31 09:40:22;;;;;;;;;11.67;10.33;;;;;38.36;20.26;101298.19;5051956;28;45364;-65
2022/08/31 09:43:12;;;;;;;;;10.00;10.00;;;;;39.17;19.31;101350.78;5036562;28;45370;-66
2022/08/31 09:46:10;;;;;;;;;13.00;13.00;;;;;39.37;18.99;101357.69;5051751;28;47955;-65
2022/08/31 09:48:38;;;;;;;;;9.67;9.67;;;;;39.07;19.33;101371.38;5034587;28;45397;-65
2022/08/31 09:51:05;;;;;;;;;10.33;10.33;;;;;39.00;19.91;101347.91;5036014;28;45473;-66
2022/08/31 09:56:23;;;;;;;;;11.00;10.00;;;;;38.69;19.68;101370.97;5039370;28;45912;-65
2022/08/31 09:58:54;;;;;;;;;9.67;9.67;;;;;38.39;19.73;101305.06;5038193;28;45561;-68
2022/08/31 10:01:29;;;;;;;;;19.33;13.00;;;;;38.42;19.98;101307.19;5038245;28;45293;-67
2022/08/31 10:04:17;;;;;;;;;13.67;11.67;;;;;37.94;19.69;101216.22;5040001;28;45482;-66
2022/08/31 10:06:54;;;;;;;;;10.00;10.00;;;;;38.36;20.35;101353.72;5038365;28;48167;-66
2022/08/31 10:09:22;;;;;;;;;13.00;10.67;;;;;38.14;20.10;101348.97;5039324;28;45324;-66
2022/08/31 10:11:52;;;;;;;;;10.67;10.33;;;;;37.41;20.68;101314.81;5037988;28;45288;-67
2022/08/31 10:14:30;;;;;;;;;13.00;13.00;;;;;36.98;21.64;101344.78;5038140;28;45478;-66
2022/08/31 10:17:03;;;;;;;;;11.00;10.00;;;;;35.59;22.87;101349.22;5037686;28;47181;-68
2022/08/31 10:19:50;;;;;;;;;10.00;10.00;;;;;34.57;24.36;101322.69;5037913;28;45367;-67
2022/08/31 10:22:24;;;;;;;;;10.00;9.00;;;;;34.20;24.71;101336.22;5023571;28;45330;-68
2022/08/31 10:25:37;;;;;;;;;8.67;7.33;;;;;32.83;26.23;101305.41;5020071;28;45290;-67
2022/08/31 10:28:07;;;;;;;;;9.00;9.00;;;;;31.75;27.50;101298.22;5040732;28;45927;-68
2022/08/31 10:30:56;;;;;;;;;12.00;12.00;;;;;31.29;28.76;101264.25;5038596;28;45352;-67
2022/08/31 10:35:01;;;;;;;;;10.00;10.00;;;;;31.06;28.96;101314.13;5038820;28;45429;-66
2022/08/31 10:36:14;;;;;;;;;10.67;10.67;;;;;30.69;29.47;101278.47;5021745;28;45483;-68
2022/08/31 10:38:49;;;;;;;;;10.00;10.00;;;;;30.74;29.94;101315.00;5034040;28;47285;-69
2022/08/31 10:41:15;;;;;;;;;9.67;9.67;;;;;30.64;29.82;101336.91;5019068;28;45235;-67
2022/08/31 10:43:47;;;;;;;;;12.33;11.00;;;;;30.35;30.45;101339.09;5018021;28;45289;-66
2022/08/31 10:46:15;;;;;;;;;13.33;11.00;;;;;29.82;31.11;101313.31;5019083;28;45614;-67
2022/08/31 10:48:45;;;;;;;;;11.67;10.00;;;;;29.28;32.21;101329.66;5017501;28;46673;-67
2022/08/31 10:51:21;;;;;;;;;9.67;9.67;;;;;28.83;32.82;101282.44;5018309;28;45475;-68
2022/08/31 10:54:10;;;;;;;;;10.00;10.00;;;;;28.78;32.85;101310.56;5018980;28;45534;-66
2022/08/31 10:56:49;;;;;;;;;11.33;11.33;;;;;27.76;33.53;101185.88;5018216;28;45262;-67
2022/08/31 10:59:26;;;;;;;;;11.33;11.33;;;;;28.11;34.55;101332.44;5020604;28;45717;-68
2022/08/31 11:02:27;;;;;;;;;13.67;13.67;;;;;27.71;35.62;101327.84;5019644;28;46625;-69
2022/08/31 11:05:21;;;;;;;;;11.67;11.67;;;;;27.81;35.60;101329.94;5045427;28;45502;-67
2022/08/31 11:07:57;;;;;;;;;14.00;10.33;;;;;27.47;35.06;101247.88;5018046;28;45494;-67
2022/08/31 11:10:38;;;;;;;;;12.00;10.67;;;;;27.44;35.35;101286.59;5019043;28;47893;-66
2022/08/31 11:13:13;;;;;;;;;13.00;10.33;;;;;27.50;35.20;101312.94;5039145;28;46362;-64
2022/08/31 11:16:07;;;;;;;;;11.00;10.33;;;;;27.70;35.27;101322.63;5033665;28;45282;-66
2022/08/31 11:18:56;;;;;;;;;12.67;11.33;;;;;27.71;35.73;101321.56;5019479;28;45288;-66
2022/08/31 11:21:45;;;;;;;;;12.33;12.33;;;;;27.25;35.84;101283.22;5017109;28;47948;-67
2022/08/31 11:24:22;;;;;;;;;11.00;9.00;;;;;27.53;35.98;101317.91;5018281;28;45292;-66
2022/08/31 11:27:04;;;;;;;;;18.33;18.00;;;;;27.48;36.19;101295.13;5018474;28;45511;-67
2022/08/31 11:29:34;;;;;;;;;8.67;8.67;;;;;27.50;36.10;101318.41;5033715;28;45640;-66
2022/08/31 11:32:17;;;;;;;;;11.33;10.33;;;;;27.44;35.87;101305.72;5017791;28;45380;-65
2022/08/31 11:34:50;;;;;;;;;13.00;12.00;;;;;27.49;35.80;101311.28;5017908;28;45411;-70
2022/08/31 11:37:45;;;;;;;;;11.00;11.00;;;;;27.65;35.87;101312.44;5017816;28;45467;-67
2022/08/31 11:40:11;;;;;;;;;10.33;9.67;;;;;27.71;36.02;101313.38;5026413;28;45573;-67
2022/08/31 11:42:39;;;;;;;;;14.33;11.00;;;;;27.66;35.83;101311.38;5037455;28;47460;-66
2022/08/31 11:45:25;;;;;;;;;4.67;4.67;;;;;27.37;36.14;101290.53;5037746;28;45305;-67